map of OGN home
OGN - Airport
Location
City:  Yonaguni, Yonaguni Island, Okinawa, Japan
Name:Yonaguni Airport
ICAO:ROYN
IATA:OGN

Details
Type:Airport (Aerodrome, Airfield)
Use:Public/Civil
Latitude:24°28'03"N (24.467500)
Longitude:122°58'47"E (122.979722)
Elevation:49 ft (15 m)
Variation:4.58°W (WMM2015 magnetic declination)
-0.09° annual change
Runways:1
Longest:6562 × 148 ft (2000 × 45 m), paved

Time
Time Zone:UTC+9
Local Time:

Weather
METAR:ROYN 150800Z AUTO 07012KT 9999 SCT029 BKN036 BKN060 22/16 Q1021

Related Locations
Nearby:
Farthest:SGSP: 12444 mi / 20027 km
San Pedro del Ycuamandiyś (San Pedro Ycua Mandiyś), 2, PY

Find:

   beyond  
but within

Other Information
Maps:
NOTAMs:
Links:
Sources:

  
  • flag of Japan
  • flag of Okinawa
  

Sectional Chart

Flight Planning
at skyvector.com

Satellite Image

Google Maps Satellite view

 

Copyright © 2004-2018 Karl L. Swartz. All rights reserved.
The Great Circle Mapper name and logo are trademarks of the Great Circle Mapper.
All other trademarks mentioned herein belong to their respective owners.
Please see credits for attibutions and further copyright information.

  Follow gcmap on Facebook Follow gcmap on Twitter Follow gcmap on Google+ GCmap on LinkedIn

hCard Microformat

Geo Microformat